Time;durP1;ratioP1;P1;durP2;ratioP2;P2;SDS_P1;SDS_P2;PMS_P1;PMS_P2;Temp;Humidity;BMP_temperature;BMP_pressure;BME280_temperature;BME280_humidity;BME280_pressure;Samples;Min_cycle;Max_cycle;Signal;HPM_P1;HPM_P2
2022/11/26 00:02:13;;;;;;;;;;;7.30;99.90;;;;;;5054860;28;20003;-73
2022/11/26 00:04:39;;;;;;;;;;;7.40;99.90;;;;;;5055387;28;20397;-74
2022/11/26 00:07:04;;;;;;;;;;;7.40;99.90;;;;;;5054362;28;19909;-71
2022/11/26 00:09:30;;;;;;;;;;;7.30;99.90;;;;;;5054716;28;19909;-73
2022/11/26 00:11:55;;;;;;;;;;;7.30;99.90;;;;;;5054926;28;19909;-74
2022/11/26 00:14:20;;;;;;;;;;;7.30;99.90;;;;;;5054570;28;19909;-73
2022/11/26 00:16:46;;;;;;;;;;;7.30;99.90;;;;;;5054522;28;19913;-72
2022/11/26 00:19:11;;;;;;;;;;;7.30;99.90;;;;;;5055293;28;19971;-74
2022/11/26 00:21:39;;;;;;;;;;;7.40;99.90;;;;;;5054428;28;20374;-74
2022/11/26 00:24:05;;;;;;;;;;;7.40;99.90;;;;;;5054699;28;19909;-73
2022/11/26 00:26:31;;;;;;;;;;;7.30;99.90;;;;;;5054672;28;20442;-73
2022/11/26 00:29:01;;;;;;;;;;;7.30;99.90;;;;;;5054860;28;19992;-74
2022/11/26 00:31:27;;;;;;;;;;;7.30;99.90;;;;;;5054271;28;19909;-73
2022/11/26 00:33:53;;;;;;;;;;;7.30;99.90;;;;;;5054258;28;19909;-73
2022/11/26 00:36:20;;;;;;;;;;;7.20;99.90;;;;;;5054717;28;19920;-72
2022/11/26 00:38:48;;;;;;;;;;;7.20;99.90;;;;;;5054203;28;20421;-73
2022/11/26 00:41:15;;;;;;;;;;;7.20;99.90;;;;;;5054387;28;19909;-73
2022/11/26 00:43:41;;;;;;;;;;;7.20;99.90;;;;;;5054161;28;19909;-72
2022/11/26 00:46:10;;;;;;;;;;;7.20;99.90;;;;;;5054333;28;19915;-72
2022/11/26 00:48:35;;;;;;;;;;;7.20;99.90;;;;;;5053965;28;19973;-74
2022/11/26 00:51:01;;;;;;;;;;;7.30;99.90;;;;;;5053953;28;20422;-74
2022/11/26 00:53:26;;;;;;;;;;;7.40;99.90;;;;;;5053587;28;20009;-74
2022/11/26 00:55:52;;;;;;;;;;;7.40;99.90;;;;;;5054389;28;20058;-72
2022/11/26 00:58:28;;;;;;;;;;;7.30;99.90;;;;;;5053865;28;19912;-75
2022/11/26 01:00:56;;;;;;;;;;;7.20;99.90;;;;;;5035800;28;20403;-72
2022/11/26 01:03:22;;;;;;;;;;;7.10;99.90;;;;;;5053787;28;19909;-72
2022/11/26 01:05:52;;;;;;;;;;;7.00;99.90;;;;;;5053746;28;19919;-71
2022/11/26 01:08:23;;;;;;;;;;;7.00;99.90;;;;;;5054259;28;20317;-73
2022/11/26 01:10:48;;;;;;;;;;;7.10;99.90;;;;;;5053689;28;20287;-73
2022/11/26 01:13:14;;;;;;;;;;;7.30;99.90;;;;;;5053671;28;19916;-72
2022/11/26 01:15:40;;;;;;;;;;;7.30;99.90;;;;;;5053826;28;19986;-72
2022/11/26 01:18:16;;;;;;;;;;;7.30;99.90;;;;;;5053592;28;20287;-72
2022/11/26 01:20:42;;;;;;;;;;;7.20;99.90;;;;;;5054329;28;19909;-73
2022/11/26 01:23:08;;;;;;;;;;;7.40;99.90;;;;;;5053520;28;19912;-73
2022/11/26 01:25:34;;;;;;;;;;;7.40;99.90;;;;;;5054119;28;19909;-72
2022/11/26 01:27:59;;;;;;;;;;;7.50;99.90;;;;;;5053514;28;20252;-75
2022/11/26 01:30:32;;;;;;;;;;;7.70;99.90;;;;;;5053761;28;20004;-75
2022/11/26 01:32:59;;;;;;;;;;;7.60;99.90;;;;;;5053752;28;19928;-72
2022/11/26 01:35:26;;;;;;;;;;;7.50;99.90;;;;;;5053682;28;19966;-73
2022/11/26 01:37:52;;;;;;;;;;;7.60;99.90;;;;;;5053396;28;19913;-74
2022/11/26 01:40:24;;;;;;;;;;;7.60;99.90;;;;;;5053943;28;20037;-73
2022/11/26 01:43:13;;;;;;;;;;;7.60;99.90;;;;;;5053299;28;20413;-72
2022/11/26 01:45:38;;;;;;;;;;;7.60;99.90;;;;;;5042422;28;19920;-72
2022/11/26 01:48:19;;;;;;;;;;;7.50;99.90;;;;;;5053300;28;19909;-74
2022/11/26 01:50:51;;;;;;;;;;;7.40;99.90;;;;;;5053594;28;20378;-73
2022/11/26 01:53:40;;;;;;;;;;;7.20;99.90;;;;;;5053052;28;19921;-74
2022/11/26 01:56:14;;;;;;;;;;;7.20;99.90;;;;;;5042256;28;20393;-75
2022/11/26 01:58:42;;;;;;;;;;;7.10;99.90;;;;;;5053168;28;20480;-74
2022/11/26 02:01:07;;;;;;;;;;;7.10;99.90;;;;;;5053465;28;19916;-73
2022/11/26 02:03:37;;;;;;;;;;;7.40;99.90;;;;;;5053208;28;20283;-73
2022/11/26 02:06:04;;;;;;;;;;;7.50;99.90;;;;;;5053742;28;19963;-74
2022/11/26 02:08:31;;;;;;;;;;;7.60;99.90;;;;;;5053057;28;19909;-73
2022/11/26 02:10:57;;;;;;;;;;;7.60;99.90;;;;;;5053648;28;19963;-74
2022/11/26 02:13:23;;;;;;;;;;;7.60;99.90;;;;;;5053041;28;19912;-73
2022/11/26 02:16:09;;;;;;;;;;;7.40;99.90;;;;;;5053233;28;19920;-75
2022/11/26 02:18:36;;;;;;;;;;;7.30;99.90;;;;;;5052407;28;19909;-72
2022/11/26 02:21:04;;;;;;;;;;;7.40;99.90;;;;;;5053494;28;19951;-72
2022/11/26 02:23:45;;;;;;;;;;;7.40;99.90;;;;;;5052931;28;20003;-72
2022/11/26 02:26:33;;;;;;;;;;;7.30;99.90;;;;;;5053244;28;19908;-73
2022/11/26 02:29:05;;;;;;;;;;;7.30;99.90;;;;;;5042194;28;19909;-73
2022/11/26 02:31:42;;;;;;;;;;;7.20;99.90;;;;;;5057185;28;19908;-74
2022/11/26 02:34:08;;;;;;;;;;;7.20;99.90;;;;;;5056504;28;19912;-71
2022/11/26 02:36:37;;;;;;;;;;;7.20;99.90;;;;;;5056996;28;19919;-73
2022/11/26 02:39:12;;;;;;;;;;;7.30;99.90;;;;;;5056414;28;19916;-73
2022/11/26 02:41:42;;;;;;;;;;;7.50;99.90;;;;;;5056667;28;19913;-73
2022/11/26 02:44:08;;;;;;;;;;;7.40;99.90;;;;;;5056291;28;20390;-72
2022/11/26 02:46:34;;;;;;;;;;;7.40;99.90;;;;;;5056372;28;19908;-73
2022/11/26 02:49:00;;;;;;;;;;;7.40;99.90;;;;;;5056278;28;19955;-72
2022/11/26 02:51:26;;;;;;;;;;;7.40;99.90;;;;;;5056073;28;19943;-71
2022/11/26 02:53:53;;;;;;;;;;;7.50;99.90;;;;;;5056199;28;20329;-72
2022/11/26 02:56:21;;;;;;;;;;;7.70;99.90;;;;;;5056078;28;19920;-73
2022/11/26 02:58:47;;;;;;;;;;;7.80;99.90;;;;;;5056137;28;19908;-73
2022/11/26 03:01:19;;;;;;;;;;;7.90;99.90;;;;;;5055224;28;20205;-73
2022/11/26 03:03:47;;;;;;;;;;;8.00;99.90;;;;;;5038154;28;19913;-72
2022/11/26 03:06:13;;;;;;;;;;;8.00;99.90;;;;;;5038029;28;19952;-74
2022/11/26 03:08:39;;;;;;;;;;;8.10;99.90;;;;;;5056430;28;19916;-73
2022/11/26 03:11:05;;;;;;;;;;;8.10;99.90;;;;;;5055799;28;19909;-74
2022/11/26 03:13:31;;;;;;;;;;;8.20;99.90;;;;;;5056077;28;19916;-72
2022/11/26 03:15:57;;;;;;;;;;;8.20;99.90;;;;;;5055695;28;20317;-73
2022/11/26 03:18:22;;;;;;;;;;;8.00;99.90;;;;;;5056039;28;19916;-71
2022/11/26 03:20:48;;;;;;;;;;;7.70;99.90;;;;;;5056202;28;19959;-74
2022/11/26 03:23:13;;;;;;;;;;;7.40;99.90;;;;;;5055648;28;19908;-72
2022/11/26 03:25:39;;;;;;;;;;;7.40;99.90;;;;;;5055883;28;19909;-74
2022/11/26 03:28:05;;;;;;;;;;;7.60;99.90;;;;;;5055486;28;20366;-72
2022/11/26 03:30:30;;;;;;;;;;;7.80;99.90;;;;;;5037528;28;19909;-73
2022/11/26 03:32:56;;;;;;;;;;;7.80;99.90;;;;;;5055454;28;19999;-74
2022/11/26 03:35:21;;;;;;;;;;;7.80;99.90;;;;;;5055635;28;20405;-73
2022/11/26 03:37:47;;;;;;;;;;;7.90;99.90;;;;;;5055365;28;20291;-73
2022/11/26 03:40:12;;;;;;;;;;;8.00;99.90;;;;;;5055704;28;19916;-73
2022/11/26 03:42:38;;;;;;;;;;;8.10;99.90;;;;;;5054434;28;19912;-74
2022/11/26 03:45:04;;;;;;;;;;;8.10;99.90;;;;;;5055142;28;19908;-74
2022/11/26 03:47:29;;;;;;;;;;;8.10;99.90;;;;;;5055182;28;20323;-73
2022/11/26 03:49:54;;;;;;;;;;;8.10;99.90;;;;;;5055404;28;20351;-72
2022/11/26 03:52:20;;;;;;;;;;;8.20;99.90;;;;;;5054887;28;19921;-73
2022/11/26 03:54:46;;;;;;;;;;;8.20;99.90;;;;;;5054972;28;19920;-74
2022/11/26 03:57:12;;;;;;;;;;;8.20;99.90;;;;;;5055257;28;20283;-72
2022/11/26 03:59:37;;;;;;;;;;;8.10;99.90;;;;;;5054937;28;19919;-74
2022/11/26 04:02:03;;;;;;;;;;;8.10;99.90;;;;;;5055176;28;19916;-73
2022/11/26 04:04:29;;;;;;;;;;;8.00;99.90;;;;;;5055099;28;19909;-73
2022/11/26 04:06:55;;;;;;;;;;;7.90;99.90;;;;;;5055079;28;20367;-73
2022/11/26 04:09:21;;;;;;;;;;;7.90;99.90;;;;;;5054755;28;19940;-75
2022/11/26 04:11:46;;;;;;;;;;;7.80;99.90;;;;;;5054709;28;19909;-74
2022/11/26 04:14:12;;;;;;;;;;;7.80;99.90;;;;;;5055216;28;20374;-73
2022/11/26 04:16:37;;;;;;;;;;;7.90;99.90;;;;;;5054780;28;19924;-74
2022/11/26 04:19:03;;;;;;;;;;;8.00;99.90;;;;;;5055109;28;19962;-72
2022/11/26 04:21:28;;;;;;;;;;;8.00;99.90;;;;;;5055333;28;20019;-74
2022/11/26 04:23:54;;;;;;;;;;;8.10;99.90;;;;;;5054466;28;20363;-72
2022/11/26 04:26:19;;;;;;;;;;;8.10;99.90;;;;;;5054409;28;19956;-73
2022/11/26 04:28:45;;;;;;;;;;;8.10;99.90;;;;;;5054670;28;19909;-72
2022/11/26 04:31:10;;;;;;;;;;;8.20;99.90;;;;;;5054313;28;19909;-74
2022/11/26 04:33:36;;;;;;;;;;;8.10;99.90;;;;;;5054585;28;19909;-72
2022/11/26 04:36:01;;;;;;;;;;;8.20;99.90;;;;;;5036321;28;20370;-73
2022/11/26 04:38:27;;;;;;;;;;;8.20;99.90;;;;;;5054217;28;20364;-72
2022/11/26 04:40:52;;;;;;;;;;;8.10;99.90;;;;;;5054185;28;20406;-73
2022/11/26 04:43:18;;;;;;;;;;;8.20;99.90;;;;;;5054341;28;19913;-71
2022/11/26 04:45:43;;;;;;;;;;;8.10;99.90;;;;;;5054063;28;19928;-73
2022/11/26 04:48:09;;;;;;;;;;;8.20;99.90;;;;;;5054296;28;19909;-73
2022/11/26 04:50:34;;;;;;;;;;;8.20;99.90;;;;;;5053979;28;19962;-72
2022/11/26 04:53:00;;;;;;;;;;;8.10;99.90;;;;;;5053521;28;20302;-73
2022/11/26 04:55:25;;;;;;;;;;;8.10;99.90;;;;;;5054097;28;19943;-71
2022/11/26 04:57:51;;;;;;;;;;;8.10;99.90;;;;;;5053905;28;19909;-73
2022/11/26 05:00:17;;;;;;;;;;;8.10;99.90;;;;;;5054076;28;19995;-72
2022/11/26 05:02:43;;;;;;;;;;;8.10;99.90;;;;;;5053742;28;19909;-72
2022/11/26 05:05:08;;;;;;;;;;;8.10;99.90;;;;;;5053796;28;20429;-73
2022/11/26 05:07:34;;;;;;;;;;;8.10;99.90;;;;;;5054945;28;19909;-72
2022/11/26 05:10:00;;;;;;;;;;;8.00;99.90;;;;;;5056444;28;19916;-74
2022/11/26 05:12:25;;;;;;;;;;;8.10;99.90;;;;;;5055678;28;20003;-72
2022/11/26 05:14:51;;;;;;;;;;;8.10;99.90;;;;;;5055057;28;20007;-72
2022/11/26 05:17:17;;;;;;;;;;;8.20;99.90;;;;;;5053596;28;19908;-73
2022/11/26 05:19:42;;;;;;;;;;;8.20;99.90;;;;;;5054632;28;19917;-70
2022/11/26 05:22:08;;;;;;;;;;;8.10;99.90;;;;;;5053552;28;19927;-72
2022/11/26 05:24:33;;;;;;;;;;;8.10;99.90;;;;;;5054079;28;19909;-72
2022/11/26 05:26:59;;;;;;;;;;;8.10;99.90;;;;;;5053534;28;19909;-73
2022/11/26 05:29:24;;;;;;;;;;;8.10;99.90;;;;;;5053994;28;19909;-72
2022/11/26 05:31:50;;;;;;;;;;;8.10;99.90;;;;;;5053443;28;19909;-72
2022/11/26 05:34:16;;;;;;;;;;;8.10;99.90;;;;;;5053707;28;19916;-72
2022/11/26 05:36:41;;;;;;;;;;;8.00;99.90;;;;;;5053347;28;20375;-72
2022/11/26 05:39:07;;;;;;;;;;;8.00;99.90;;;;;;5053710;28;19958;-72
2022/11/26 05:41:32;;;;;;;;;;;8.00;99.90;;;;;;5053671;28;20355;-73
2022/11/26 05:43:58;;;;;;;;;;;8.00;99.90;;;;;;5053358;28;19958;-74
2022/11/26 05:46:24;;;;;;;;;;;8.00;99.90;;;;;;5053608;28;19908;-75
2022/11/26 05:48:49;;;;;;;;;;;8.00;99.90;;;;;;5053253;28;19962;-72
2022/11/26 05:51:15;;;;;;;;;;;8.00;99.90;;;;;;5053338;28;19913;-74
2022/11/26 05:53:40;;;;;;;;;;;8.10;99.90;;;;;;5052880;28;20365;-71
2022/11/26 05:56:06;;;;;;;;;;;8.10;99.90;;;;;;5053450;28;19913;-74
2022/11/26 05:58:31;;;;;;;;;;;8.00;99.90;;;;;;5053141;28;19909;-72
2022/11/26 06:00:57;;;;;;;;;;;8.00;99.90;;;;;;5035318;28;19931;-75
2022/11/26 06:03:22;;;;;;;;;;;8.00;99.90;;;;;;5053155;28;19909;-73
2022/11/26 06:05:48;;;;;;;;;;;8.00;99.90;;;;;;5056490;28;19920;-72
2022/11/26 06:08:13;;;;;;;;;;;8.10;99.90;;;;;;5057027;28;20350;-73
2022/11/26 06:10:40;;;;;;;;;;;8.00;99.90;;;;;;5057265;28;19915;-73
2022/11/26 06:13:06;;;;;;;;;;;8.00;99.90;;;;;;5056967;28;19996;-73
2022/11/26 06:15:31;;;;;;;;;;;8.10;99.90;;;;;;5056878;28;19951;-72
2022/11/26 06:17:57;;;;;;;;;;;8.10;99.90;;;;;;5038941;28;19931;-73
2022/11/26 06:20:22;;;;;;;;;;;8.10;99.90;;;;;;5057610;28;19915;-72
2022/11/26 06:22:48;;;;;;;;;;;8.20;99.90;;;;;;5056756;28;19913;-73
2022/11/26 06:25:13;;;;;;;;;;;8.20;99.90;;;;;;5057304;28;20394;-72
2022/11/26 06:27:39;;;;;;;;;;;8.20;99.90;;;;;;5056684;28;20003;-73
2022/11/26 06:30:06;;;;;;;;;;;8.20;99.90;;;;;;5056944;28;19955;-74
2022/11/26 06:32:32;;;;;;;;;;;8.20;99.90;;;;;;5056534;28;20004;-72
2022/11/26 06:34:57;;;;;;;;;;;8.20;99.90;;;;;;5056815;28;19948;-73
2022/11/26 06:37:23;;;;;;;;;;;8.20;99.90;;;;;;5056543;28;19944;-73
2022/11/26 06:39:49;;;;;;;;;;;8.20;99.90;;;;;;5056753;28;20350;-72
2022/11/26 06:42:14;;;;;;;;;;;8.20;99.90;;;;;;5056401;28;19909;-73
2022/11/26 06:44:40;;;;;;;;;;;8.20;99.90;;;;;;5056297;28;19948;-73
2022/11/26 06:47:08;;;;;;;;;;;8.20;99.90;;;;;;5056619;28;19909;-73
2022/11/26 06:49:34;;;;;;;;;;;8.20;99.90;;;;;;5056269;28;20275;-73
2022/11/26 06:51:59;;;;;;;;;;;8.10;99.90;;;;;;5056487;28;19921;-74
2022/11/26 06:54:25;;;;;;;;;;;8.20;99.90;;;;;;5056206;28;19916;-74
2022/11/26 06:56:50;;;;;;;;;;;8.20;99.90;;;;;;5056090;28;19912;-72
2022/11/26 06:59:16;;;;;;;;;;;8.20;99.90;;;;;;5056097;28;20252;-71
2022/11/26 07:01:41;;;;;;;;;;;8.20;99.90;;;;;;5056088;28;19962;-73
2022/11/26 07:04:08;;;;;;;;;;;8.10;99.90;;;;;;5056299;28;19944;-74
2022/11/26 07:06:34;;;;;;;;;;;8.10;99.90;;;;;;5056001;28;20445;-71
2022/11/26 07:09:04;;;;;;;;;;;8.10;99.90;;;;;;5056174;28;19909;-74
2022/11/26 07:11:30;;;;;;;;;;;8.10;99.90;;;;;;5055873;28;19916;-74
2022/11/26 07:13:56;;;;;;;;;;;8.10;99.90;;;;;;5055861;28;20252;-74
2022/11/26 07:16:21;;;;;;;;;;;8.10;99.90;;;;;;5055889;28;19913;-71
2022/11/26 07:18:48;;;;;;;;;;;8.00;99.90;;;;;;5055641;28;20283;-75
2022/11/26 07:21:13;;;;;;;;;;;8.00;99.90;;;;;;5038291;28;19935;-72
2022/11/26 07:23:39;;;;;;;;;;;8.00;99.90;;;;;;5055647;28;19916;-75
2022/11/26 07:26:05;;;;;;;;;;;8.00;99.90;;;;;;5055919;28;19909;-73
2022/11/26 07:28:31;;;;;;;;;;;8.00;99.90;;;;;;5055566;28;19909;-71
2022/11/26 07:31:01;;;;;;;;;;;8.00;99.90;;;;;;5055511;28;19931;-72
2022/11/26 07:33:27;;;;;;;;;;;8.00;99.90;;;;;;5055776;28;20278;-74
2022/11/26 07:35:52;;;;;;;;;;;8.00;99.90;;;;;;5055396;28;19913;-70
2022/11/26 07:38:18;;;;;;;;;;;8.00;99.90;;;;;;5055407;28;19956;-74
2022/11/26 07:40:43;;;;;;;;;;;8.00;99.90;;;;;;5055287;28;19908;-73
2022/11/26 07:43:09;;;;;;;;;;;8.00;99.90;;;;;;5055197;28;19908;-74
2022/11/26 07:45:36;;;;;;;;;;;8.00;99.90;;;;;;5055262;28;19948;-73
2022/11/26 07:48:02;;;;;;;;;;;8.00;99.90;;;;;;5055536;28;19915;-73
2022/11/26 07:50:27;;;;;;;;;;;8.00;99.90;;;;;;5055147;28;19950;-72
2022/11/26 07:52:53;;;;;;;;;;;8.10;99.90;;;;;;5049172;28;19959;-73
2022/11/26 07:55:18;;;;;;;;;;;8.10;99.90;;;;;;5075009;28;20010;-74
2022/11/26 07:57:44;;;;;;;;;;;8.10;99.90;;;;;;5074984;28;20362;-73
2022/11/26 08:00:10;;;;;;;;;;;8.10;99.90;;;;;;5075193;28;19908;-72
2022/11/26 08:02:35;;;;;;;;;;;8.10;99.90;;;;;;5056944;28;20282;-74
2022/11/26 08:05:01;;;;;;;;;;;8.10;99.90;;;;;;5075149;28;19908;-74
2022/11/26 08:07:26;;;;;;;;;;;8.10;99.90;;;;;;5056838;28;20382;-74
2022/11/26 08:09:52;;;;;;;;;;;8.20;99.90;;;;;;5075048;28;19908;-73
2022/11/26 08:12:17;;;;;;;;;;;8.20;99.90;;;;;;5074697;28;19913;-73
2022/11/26 08:14:43;;;;;;;;;;;8.20;99.90;;;;;;5074611;28;19962;-73
2022/11/26 08:17:08;;;;;;;;;;;8.20;99.90;;;;;;5074555;28;19935;-75
2022/11/26 08:19:34;;;;;;;;;;;8.20;99.90;;;;;;5074808;28;19908;-74
2022/11/26 08:21:59;;;;;;;;;;;8.20;99.90;;;;;;5075048;28;19958;-72
2022/11/26 08:24:25;;;;;;;;;;;8.20;99.90;;;;;;5074684;28;19909;-72
2022/11/26 08:26:51;;;;;;;;;;;8.20;99.90;;;;;;5073963;28;19913;-74
2022/11/26 08:29:16;;;;;;;;;;;8.20;99.90;;;;;;5074564;28;19909;-72
2022/11/26 08:31:42;;;;;;;;;;;8.30;99.90;;;;;;5074243;28;19962;-73
2022/11/26 08:34:10;;;;;;;;;;;8.30;99.90;;;;;;5074278;28;19908;-73
2022/11/26 08:36:36;;;;;;;;;;;8.40;99.90;;;;;;5074429;28;19920;-72
2022/11/26 08:39:01;;;;;;;;;;;8.50;99.90;;;;;;5074170;28;19912;-76
2022/11/26 08:41:27;;;;;;;;;;;8.60;99.90;;;;;;5074130;28;19912;-73
2022/11/26 08:43:52;;;;;;;;;;;8.70;99.90;;;;;;5074296;28;19962;-73
2022/11/26 08:46:18;;;;;;;;;;;8.70;99.90;;;;;;5074006;28;20431;-72
2022/11/26 08:48:44;;;;;;;;;;;8.80;99.90;;;;;;5074544;28;19999;-73
2022/11/26 08:51:10;;;;;;;;;;;8.90;99.90;;;;;;5073932;28;20349;-74
2022/11/26 08:53:36;;;;;;;;;;;8.90;99.90;;;;;;5055383;28;19982;-74
2022/11/26 08:56:02;;;;;;;;;;;9.00;99.90;;;;;;5053852;28;20373;-74
2022/11/26 08:58:28;;;;;;;;;;;9.00;99.90;;;;;;5054053;28;19913;-76
2022/11/26 09:00:54;;;;;;;;;;;9.00;99.90;;;;;;5053864;28;19909;-77
2022/11/26 09:03:19;;;;;;;;;;;9.00;99.90;;;;;;5053783;28;20337;-77
2022/11/26 09:05:45;;;;;;;;;;;9.10;99.90;;;;;;5035795;28;20425;-75
2022/11/26 09:08:10;;;;;;;;;;;9.20;99.90;;;;;;5053724;28;20386;-72
2022/11/26 09:10:36;;;;;;;;;;;9.30;99.90;;;;;;5053694;28;19909;-73
2022/11/26 09:13:01;;;;;;;;;;;9.30;99.90;;;;;;5053651;28;19915;-74
2022/11/26 09:15:27;;;;;;;;;;;9.40;99.90;;;;;;5053577;28;19920;-74
2022/11/26 09:17:52;;;;;;;;;;;9.50;99.90;;;;;;5053942;28;20311;-75
2022/11/26 09:20:18;;;;;;;;;;;9.50;99.90;;;;;;5053758;28;19912;-73
2022/11/26 09:22:44;;;;;;;;;;;9.50;99.90;;;;;;5054158;28;19909;-74
2022/11/26 09:25:09;;;;;;;;;;;9.60;99.90;;;;;;5053824;28;19916;-73
2022/11/26 09:27:37;;;;;;;;;;;9.70;99.90;;;;;;5053493;28;19915;-74
2022/11/26 09:30:03;;;;;;;;;;;9.80;99.90;;;;;;5053539;28;19958;-73
2022/11/26 09:32:28;;;;;;;;;;;9.90;99.90;;;;;;5053429;28;19913;-74
2022/11/26 09:34:54;;;;;;;;;;;10.00;99.90;;;;;;5035550;28;19997;-74
2022/11/26 09:37:20;;;;;;;;;;;10.10;99.90;;;;;;5053346;28;19959;-76
2022/11/26 09:39:45;;;;;;;;;;;10.20;99.90;;;;;;5036822;28;20000;-76
2022/11/26 09:42:11;;;;;;;;;;;10.20;99.90;;;;;;5057549;28;20327;-73
2022/11/26 09:44:39;;;;;;;;;;;10.30;99.90;;;;;;5057227;28;19959;-75
2022/11/26 09:47:07;;;;;;;;;;;10.30;99.90;;;;;;5057415;28;19995;-74
2022/11/26 09:49:52;;;;;;;;;;;10.50;99.90;;;;;;5039404;28;19908;-76
2022/11/26 09:52:18;;;;;;;;;;;10.60;99.90;;;;;;5057089;28;19970;-74
2022/11/26 09:54:45;;;;;;;;;;;10.80;99.90;;;;;;5057335;28;19936;-73
2022/11/26 09:57:16;;;;;;;;;;;10.90;99.90;;;;;;5057292;28;19913;-73
2022/11/26 09:59:44;;;;;;;;;;;10.90;99.90;;;;;;5039278;28;19916;-74
2022/11/26 10:02:10;;;;;;;;;;;11.00;99.90;;;;;;5057368;28;19908;-73
2022/11/26 10:04:36;;;;;;;;;;;11.10;99.90;;;;;;5057374;28;19927;-74
2022/11/26 10:07:02;;;;;;;;;;;11.10;99.90;;;;;;5056384;28;19909;-74
2022/11/26 10:09:34;;;;;;;;;;;11.20;99.90;;;;;;5055196;28;19920;-73
2022/11/26 10:12:08;;;;;;;;;;;11.20;99.90;;;;;;5056431;28;20054;-74
2022/11/26 10:14:33;;;;;;;;;;;11.10;99.90;;;;;;5056637;28;19908;-73
2022/11/26 10:17:29;;;;;;;;;;;11.10;99.90;;;;;;5056427;28;19919;-73
2022/11/26 10:20:00;;;;;;;;;;;11.10;99.90;;;;;;5039290;28;20038;-75
2022/11/26 10:22:34;;;;;;;;;;;11.10;99.90;;;;;;5057322;28;19908;-73
2022/11/26 10:25:01;;;;;;;;;;;11.10;99.90;;;;;;5056750;28;19909;-74
2022/11/26 10:27:29;;;;;;;;;;;11.20;99.90;;;;;;5057005;28;19909;-73
2022/11/26 10:30:27;;;;;;;;;;;11.20;99.90;;;;;;5056717;28;19909;-73
2022/11/26 10:32:54;;;;;;;;;;;11.30;99.90;;;;;;5012493;28;19916;-73
2022/11/26 10:35:21;;;;;;;;;;;11.50;99.90;;;;;;5056520;28;19928;-73
2022/11/26 10:37:46;;;;;;;;;;;11.60;99.90;;;;;;5057087;28;19924;-74
2022/11/26 10:40:18;;;;;;;;;;;11.70;99.90;;;;;;5056175;28;20391;-73
2022/11/26 10:42:47;;;;;;;;;;;11.70;99.90;;;;;;5056861;28;19915;-73
2022/11/26 10:45:18;;;;;;;;;;;11.70;99.90;;;;;;5056461;28;19912;-74
2022/11/26 10:47:44;;;;;;;;;;;11.60;99.90;;;;;;5056589;28;19938;-73
2022/11/26 10:50:09;;;;;;;;;;;11.60;99.90;;;;;;5037652;28;19908;-72
2022/11/26 10:52:36;;;;;;;;;;;11.60;99.90;;;;;;5056087;28;19925;-73
2022/11/26 10:55:08;;;;;;;;;;;11.60;99.90;;;;;;5056736;28;19992;-73
2022/11/26 10:57:35;;;;;;;;;;;11.60;99.90;;;;;;5056160;28;20462;-76
2022/11/26 11:00:01;;;;;;;;;;;11.70;99.90;;;;;;5055998;28;19996;-74
2022/11/26 11:02:40;;;;;;;;;;;11.80;99.90;;;;;;5056070;28;19956;-75
2022/11/26 11:05:07;;;;;;;;;;;11.80;99.90;;;;;;5056186;28;19935;-74
2022/11/26 11:07:36;;;;;;;;;;;11.80;99.90;;;;;;5055927;28;19916;-74
2022/11/26 11:10:08;;;;;;;;;;;11.80;99.90;;;;;;5056171;28;19909;-72
2022/11/26 11:12:44;;;;;;;;;;;11.80;99.90;;;;;;5056137;28;20255;-73
2022/11/26 11:15:12;;;;;;;;;;;11.80;99.90;;;;;;5054498;28;19909;-71
2022/11/26 11:17:39;;;;;;;;;;;11.80;99.90;;;;;;5054499;28;19920;-74
2022/11/26 11:20:14;;;;;;;;;;;11.80;99.90;;;;;;5038828;28;19999;-74
2022/11/26 11:22:40;;;;;;;;;;;11.80;99.90;;;;;;5056325;28;19999;-75
2022/11/26 11:25:19;;;;;;;;;;;11.70;99.90;;;;;;5055347;28;20374;-73
2022/11/26 11:27:45;;;;;;;;;;;11.70;99.90;;;;;;5055227;28;19916;-74
2022/11/26 11:30:31;;;;;;;;;;;11.70;99.90;;;;;;5055195;28;19908;-72
2022/11/26 11:33:08;;;;;;;;;;;11.80;99.90;;;;;;5055019;28;20000;-72
2022/11/26 11:35:34;;;;;;;;;;;11.80;99.90;;;;;;5056014;28;19920;-74
2022/11/26 11:37:59;;;;;;;;;;;11.70;99.90;;;;;;5055043;28;19908;-74
2022/11/26 11:40:27;;;;;;;;;;;11.70;99.90;;;;;;5055934;28;19959;-73
2022/11/26 11:43:03;;;;;;;;;;;11.80;99.90;;;;;;5055549;28;19974;-72
2022/11/26 11:45:36;;;;;;;;;;;11.80;99.90;;;;;;5055236;28;19913;-72
2022/11/26 11:48:20;;;;;;;;;;;11.90;99.90;;;;;;5055215;28;20386;-75
2022/11/26 11:50:54;;;;;;;;;;;11.90;99.90;;;;;;5055419;28;19909;-74
2022/11/26 11:53:33;;;;;;;;;;;12.00;99.90;;;;;;5055002;28;20394;-73
2022/11/26 11:56:17;;;;;;;;;;;12.10;99.90;;;;;;5036860;28;20345;-73
2022/11/26 11:59:02;;;;;;;;;;;12.20;99.90;;;;;;5055280;28;20343;-73
2022/11/26 12:01:48;;;;;;;;;;;12.30;99.90;;;;;;5036711;28;20086;-74
2022/11/26 12:04:33;;;;;;;;;;;12.30;99.90;;;;;;5039172;28;19909;-75
2022/11/26 12:07:01;;;;;;;;;;;12.30;99.90;;;;;;5053463;28;19912;-75
2022/11/26 12:09:31;;;;;;;;;;;12.30;99.90;;;;;;5053456;28;19909;-75
2022/11/26 12:12:16;;;;;;;;;;;12.20;99.90;;;;;;5054278;28;20362;-75
2022/11/26 12:14:46;;;;;;;;;;;12.20;99.90;;;;;;5054036;28;19909;-72
2022/11/26 12:17:30;;;;;;;;;;;12.20;99.90;;;;;;5054178;28;19920;-75
2022/11/26 12:19:59;;;;;;;;;;;12.30;99.90;;;;;;5054424;28;19908;-76
2022/11/26 12:22:25;;;;;;;;;;;12.20;99.90;;;;;;5055032;28;19909;-74
2022/11/26 12:24:55;;;;;;;;;;;12.20;99.90;;;;;;5054421;28;19995;-73
2022/11/26 12:27:25;;;;;;;;;;;12.20;99.90;;;;;;5054376;28;20292;-74
2022/11/26 12:29:54;;;;;;;;;;;12.10;99.90;;;;;;5037094;28;19955;-73
2022/11/26 12:32:25;;;;;;;;;;;12.10;99.90;;;;;;5054236;28;19959;-74
2022/11/26 12:34:52;;;;;;;;;;;12.00;99.90;;;;;;5054617;28;20410;-74
2022/11/26 12:37:37;;;;;;;;;;;12.00;99.90;;;;;;5054249;28;19913;-72
2022/11/26 12:40:09;;;;;;;;;;;11.90;99.90;;;;;;5054558;28;19959;-73
2022/11/26 12:42:40;;;;;;;;;;;12.00;99.90;;;;;;5054242;28;19909;-74
2022/11/26 12:45:15;;;;;;;;;;;11.90;99.90;;;;;;5054445;28;19916;-74
2022/11/26 12:47:43;;;;;;;;;;;11.90;99.90;;;;;;5054077;28;19931;-73
2022/11/26 12:50:16;;;;;;;;;;;11.80;99.90;;;;;;5036178;28;20290;-75
2022/11/26 12:52:57;;;;;;;;;;;11.80;99.90;;;;;;5053964;28;19920;-72
2022/11/26 12:55:34;;;;;;;;;;;11.80;99.90;;;;;;5054114;28;19916;-73
2022/11/26 12:58:02;;;;;;;;;;;11.80;99.90;;;;;;5053887;28;19931;-73
2022/11/26 13:00:29;;;;;;;;;;;11.80;99.90;;;;;;5053830;28;20329;-73
2022/11/26 13:02:54;;;;;;;;;;;11.80;99.90;;;;;;5053714;28;19996;-74
2022/11/26 13:05:32;;;;;;;;;;;11.80;99.90;;;;;;5054064;28;20370;-72
2022/11/26 13:08:15;;;;;;;;;;;11.80;99.90;;;;;;5054130;28;19909;-74
2022/11/26 13:11:02;;;;;;;;;;;11.70;99.90;;;;;;5053770;28;19908;-73
2022/11/26 13:13:28;;;;;;;;;;;11.70;99.90;;;;;;5053916;28;19909;-74
2022/11/26 13:16:05;;;;;;;;;;;11.70;99.90;;;;;;5053624;28;20382;-74
2022/11/26 13:18:36;;;;;;;;;;;11.70;99.90;;;;;;5054000;28;19915;-74
2022/11/26 13:21:04;;;;;;;;;;;11.70;99.90;;;;;;5054134;28;19908;-74
2022/11/26 13:23:37;;;;;;;;;;;11.70;99.90;;;;;;5053866;28;19909;-74
2022/11/26 13:26:21;;;;;;;;;;;11.70;99.90;;;;;;5053574;28;19958;-72
2022/11/26 13:28:46;;;;;;;;;;;11.70;99.90;;;;;;5053513;28;19944;-72
2022/11/26 13:31:30;;;;;;;;;;;11.70;99.90;;;;;;5053466;28;19909;-75
2022/11/26 13:34:21;;;;;;;;;;;11.70;99.90;;;;;;5053729;28;19909;-72
2022/11/26 13:36:52;;;;;;;;;;;11.70;99.90;;;;;;5053661;28;20438;-75
2022/11/26 13:39:30;;;;;;;;;;;11.80;99.90;;;;;;5053686;28;19931;-74
2022/11/26 13:42:09;;;;;;;;;;;11.80;99.90;;;;;;5053366;28;19915;-74
2022/11/26 13:44:45;;;;;;;;;;;11.80;99.90;;;;;;5053520;28;19996;-73
2022/11/26 13:47:25;;;;;;;;;;;11.80;99.90;;;;;;5053659;28;20321;-73
2022/11/26 13:49:57;;;;;;;;;;;11.70;99.90;;;;;;5053330;28;19909;-72
2022/11/26 13:52:27;;;;;;;;;;;11.70;99.90;;;;;;5053329;28;19920;-73
2022/11/26 13:54:59;;;;;;;;;;;11.70;99.90;;;;;;5053608;28;19947;-74
2022/11/26 13:57:30;;;;;;;;;;;11.80;99.90;;;;;;5053242;28;20405;-74
2022/11/26 13:59:56;;;;;;;;;;;11.70;99.90;;;;;;5053586;28;19963;-73
2022/11/26 14:02:36;;;;;;;;;;;11.70;99.90;;;;;;5053200;28;19912;-73
2022/11/26 14:05:04;;;;;;;;;;;11.70;99.90;;;;;;5053189;28;19913;-74
2022/11/26 14:07:30;;;;;;;;;;;11.80;99.90;;;;;;5053430;28;19959;-74
2022/11/26 14:09:58;;;;;;;;;;;11.80;99.90;;;;;;5053104;28;19909;-75
2022/11/26 14:12:44;;;;;;;;;;;11.80;99.90;;;;;;5053133;28;19908;-75
2022/11/26 14:15:28;;;;;;;;;;;11.90;99.90;;;;;;5053003;28;19932;-74
2022/11/26 14:17:54;;;;;;;;;;;11.80;99.90;;;;;;5053063;28;19909;-72
2022/11/26 14:20:20;;;;;;;;;;;11.90;99.90;;;;;;5053311;28;19947;-74
2022/11/26 14:22:45;;;;;;;;;;;11.90;99.90;;;;;;5053539;28;19909;-74
2022/11/26 14:25:12;;;;;;;;;;;11.90;99.90;;;;;;5053730;28;20413;-73
2022/11/26 14:27:43;;;;;;;;;;;11.90;99.90;;;;;;5056781;28;19955;-74
2022/11/26 14:30:12;;;;;;;;;;;11.90;99.90;;;;;;5056773;28;20011;-75
2022/11/26 14:32:39;;;;;;;;;;;12.00;99.90;;;;;;5056699;28;19909;-74
2022/11/26 14:35:36;;;;;;;;;;;12.00;99.90;;;;;;5057057;28;19915;-74